Time;durP1;ratioP1;P1;durP2;ratioP2;P2;SDS_P1;SDS_P2;PMS_P1;PMS_P2;Temp;Humidity;BMP_temperature;BMP_pressure;BME280_temperature;BME280_humidity;BME280_pressure;Samples;Min_cycle;Max_cycle;Signal;HPM_P1;HPM_P2
2021/01/30 00:02:09;;;;;;;;;;;;;;;18.36;41.68;98331.53;4405105;32;19991;-50
2021/01/30 00:04:36;;;;;;;;;;;;;;;18.37;41.69;98340.34;4417725;32;19970;-46
2021/01/30 00:07:02;;;;;;;;;;;;;;;18.30;41.83;98331.63;4417187;32;20046;-51
2021/01/30 00:09:28;;;;;;;;;;;;;;;18.32;41.81;98340.37;4401120;32;20399;-50
2021/01/30 00:11:53;;;;;;;;;;;;;;;18.34;41.74;98343.00;4402470;32;19980;-47
2021/01/30 00:14:19;;;;;;;;;;;;;;;18.32;41.79;98345.66;4416835;32;20285;-49
2021/01/30 00:16:45;;;;;;;;;;;;;;;18.31;41.73;98348.28;4417734;32;19961;-50
2021/01/30 00:19:11;;;;;;;;;;;;;;;18.34;41.65;98348.28;4387986;32;20621;-53
2021/01/30 00:21:37;;;;;;;;;;;;;;;18.38;41.55;98360.53;4402203;32;20285;-50
2021/01/30 00:24:03;;;;;;;;;;;;;;;18.34;41.58;98349.13;4414657;32;19950;-49
2021/01/30 00:26:29;;;;;;;;;;;;;;;18.34;41.63;98356.19;4416935;32;20377;-46
2021/01/30 00:28:55;;;;;;;;;;;;;;;18.29;41.64;98352.72;4416865;32;19950;-51
2021/01/30 00:31:21;;;;;;;;;;;;;;;18.32;41.58;98350.03;4416288;32;19954;-52
2021/01/30 00:33:46;;;;;;;;;;;;;;;18.30;41.51;98359.72;4417124;32;19964;-51
2021/01/30 00:36:12;;;;;;;;;;;;;;;18.30;41.55;98351.81;4416996;32;19997;-51
2021/01/30 00:38:38;;;;;;;;;;;;;;;18.32;41.40;98368.47;4409024;32;19966;-49
2021/01/30 00:41:04;;;;;;;;;;;;;;;18.32;41.47;98366.72;4402184;32;19962;-51
2021/01/30 00:43:30;;;;;;;;;;;;;;;18.30;41.48;98360.59;4407981;32;20369;-48
2021/01/30 00:45:56;;;;;;;;;;;;;;;18.29;41.41;98372.03;4416495;32;19980;-47
2021/01/30 00:48:22;;;;;;;;;;;;;;;18.29;41.46;98368.53;4411346;32;20156;-51
2021/01/30 00:50:48;;;;;;;;;;;;;;;18.30;41.37;98363.25;4401460;32;19988;-49
2021/01/30 00:53:14;;;;;;;;;;;;;;;18.30;41.42;98372.91;4405797;32;19950;-50
2021/01/30 00:55:41;;;;;;;;;;;;;;;18.28;41.35;98374.69;4417177;32;19951;-52
2021/01/30 00:58:07;;;;;;;;;;;;;;;18.29;41.27;98371.16;4413855;32;19942;-50
2021/01/30 01:00:33;;;;;;;;;;;;;;;18.29;41.24;98363.25;4402875;32;19962;-52
2021/01/30 01:02:58;;;;;;;;;;;;;;;18.29;41.33;98360.63;4416620;32;20361;-49
2021/01/30 01:05:24;;;;;;;;;;;;;;;18.31;41.26;98353.56;4416832;32;19962;-53
2021/01/30 01:07:50;;;;;;;;;;;;;;;18.25;41.33;98352.75;4416836;32;19954;-48
2021/01/30 01:10:16;;;;;;;;;;;;;;;18.28;41.22;98359.75;4399438;32;19962;-50
2021/01/30 01:12:42;;;;;;;;;;;;;;;18.26;41.19;98357.13;4401501;32;20263;-47
2021/01/30 01:15:08;;;;;;;;;;;;;;;18.29;41.14;98355.34;4414919;32;19984;-47
2021/01/30 01:17:34;;;;;;;;;;;;;;;18.28;41.16;98358.88;4416399;32;19972;-52
2021/01/30 01:20:00;;;;;;;;;;;;;;;18.25;41.20;98355.37;4416738;32;19965;-52
2021/01/30 01:22:25;;;;;;;;;;;;;;;18.25;41.08;98359.78;4416043;32;19991;-49
2021/01/30 01:24:51;;;;;;;;;;;;;;;18.25;41.18;98362.41;4405636;32;20290;-51
2021/01/30 01:27:17;;;;;;;;;;;;;;;18.25;41.14;98360.66;4401354;32;19970;-51
2021/01/30 01:29:43;;;;;;;;;;;;;;;18.24;41.07;98374.72;4410753;32;19988;-49
2021/01/30 01:32:09;;;;;;;;;;;;;;;18.24;41.14;98364.19;4416392;32;19966;-49
2021/01/30 01:34:35;;;;;;;;;;;;;;;18.24;41.10;98377.34;4416640;32;20569;-48
2021/01/30 01:37:01;;;;;;;;;;;;;;;18.21;41.06;98382.66;4416099;32;19966;-47
2021/01/30 01:39:27;;;;;;;;;;;;;;;18.22;41.01;98384.41;4407800;32;20409;-49
2021/01/30 01:41:52;;;;;;;;;;;;;;;18.24;41.03;98387.91;4401882;32;20411;-49
2021/01/30 01:44:18;;;;;;;;;;;;;;;18.25;40.99;98397.53;4406614;32;19968;-49
2021/01/30 01:46:44;;;;;;;;;;;;;;;18.28;40.87;98398.41;4416837;32;20003;-51
2021/01/30 01:49:10;;;;;;;;;;;;;;;18.24;40.95;98411.59;4411745;32;20100;-49
2021/01/30 01:51:36;;;;;;;;;;;;;;;18.24;40.92;98418.63;4398752;32;19950;-52
2021/01/30 01:54:02;;;;;;;;;;;;;;;18.26;40.85;98419.47;4404658;32;19958;-51
2021/01/30 01:56:28;;;;;;;;;;;;;;;18.24;40.94;98418.63;4417292;32;20242;-50
2021/01/30 01:58:54;;;;;;;;;;;;;;;18.20;40.93;98417.78;4417882;32;20343;-48
2021/01/30 02:01:20;;;;;;;;;;;;;;;18.20;40.92;98417.78;4410793;32;19982;-49
2021/01/30 02:03:46;;;;;;;;;;;;;;;18.20;40.94;98415.13;4418919;32;19962;-53
2021/01/30 02:06:12;;;;;;;;;;;;;;;18.18;40.99;98410.81;4419141;32;20027;-50
2021/01/30 02:08:38;;;;;;;;;;;;;;;18.19;40.88;98402.84;4418706;32;19976;-51
2021/01/30 02:11:04;;;;;;;;;;;;;;;18.19;40.92;98396.72;4418561;32;20323;-50
2021/01/30 02:13:30;;;;;;;;;;;;;;;18.22;40.78;98389.69;4419309;32;19969;-47
2021/01/30 02:15:56;;;;;;;;;;;;;;;18.18;40.87;98385.31;4419488;32;19966;-53
2021/01/30 02:18:21;;;;;;;;;;;;;;;18.19;40.86;98387.06;4418548;32;19969;-50
2021/01/30 02:20:47;;;;;;;;;;;;;;;18.21;40.81;98385.31;4407811;32;20021;-51
2021/01/30 02:23:13;;;;;;;;;;;;;;;18.22;40.70;98394.06;4403020;32;19978;-49
2021/01/30 02:25:39;;;;;;;;;;;;;;;18.22;40.79;98388.78;4413880;32;19981;-49
2021/01/30 02:28:05;;;;;;;;;;;;;;;18.20;40.83;98388.78;4418135;32;19984;-46
2021/01/30 02:30:31;;;;;;;;;;;;;;;18.18;40.79;98387.94;4411910;32;20009;-50
2021/01/30 02:32:57;;;;;;;;;;;;;;;18.08;40.96;98389.81;4418827;32;19949;-49
2021/01/30 02:35:23;;;;;;;;;;;;;;;18.15;40.78;98395.00;4418443;32;20390;-48
2021/01/30 02:37:49;;;;;;;;;;;;;;;18.12;40.84;98391.50;4418975;32;19964;-54
2021/01/30 02:40:15;;;;;;;;;;;;;;;18.15;40.76;98387.97;4417967;32;19991;-51
2021/01/30 02:42:44;;;;;;;;;;;;;;;18.12;40.83;98388.03;4419085;32;20260;-52
2021/01/30 02:45:10;;;;;;;;;;;;;;;18.13;40.81;98384.50;4413803;32;20046;-49
2021/01/30 02:47:36;;;;;;;;;;;;;;;18.15;40.74;98385.34;4403559;32;19969;-48
2021/01/30 02:50:01;;;;;;;;;;;;;;;18.14;40.78;98383.59;4406091;32;20045;-46
2021/01/30 02:52:27;;;;;;;;;;;;;;;18.11;40.76;98378.37;4418573;32;20028;-48
2021/01/30 02:54:54;;;;;;;;;;;;;;;18.12;40.76;98388.03;4417061;32;19954;-48
2021/01/30 02:57:20;;;;;;;;;;;;;;;18.07;40.89;98384.53;4402385;32;19962;-51
2021/01/30 02:59:45;;;;;;;;;;;;;;;18.15;40.70;98390.63;4403584;32;20312;-51
2021/01/30 03:02:11;;;;;;;;;;;;;;;18.11;40.74;98389.75;4417973;32;20009;-51
2021/01/30 03:04:37;;;;;;;;;;;;;;;18.11;40.78;98389.75;4418939;32;20429;-52
2021/01/30 03:07:03;;;;;;;;;;;;;;;18.09;40.77;98381.00;4416197;32;20354;-49
2021/01/30 03:09:29;;;;;;;;;;;;;;;18.13;40.69;98381.84;4418041;32;19980;-48
2021/01/30 03:11:55;;;;;;;;;;;;;;;18.17;40.61;98383.56;4419026;32;19995;-49
2021/01/30 03:14:21;;;;;;;;;;;;;;;18.10;40.73;98380.13;4417235;32;20338;-51
2021/01/30 03:16:46;;;;;;;;;;;;;;;18.09;40.73;98380.16;4392935;32;19988;-51
2021/01/30 03:19:12;;;;;;;;;;;;;;;18.10;40.73;98369.59;4402528;32;19982;-52
2021/01/30 03:21:38;;;;;;;;;;;;;;;18.12;40.65;98374.84;4413419;32;20294;-49
2021/01/30 03:24:04;;;;;;;;;;;;;;;18.11;40.69;98378.37;4417970;32;19958;-46
2021/01/30 03:26:30;;;;;;;;;;;;;;;18.17;40.57;98375.66;4418726;32;19969;-49
2021/01/30 03:28:56;;;;;;;;;;;;;;;18.18;40.56;98380.03;4417532;32;19972;-49
2021/01/30 03:31:22;;;;;;;;;;;;;;;18.10;40.67;98371.38;4417656;32;19954;-51
2021/01/30 03:33:48;;;;;;;;;;;;;;;18.13;40.63;98384.50;4418010;32;19987;-45
2021/01/30 03:36:14;;;;;;;;;;;;;;;18.07;40.74;98376.63;4417779;32;19961;-50
2021/01/30 03:38:40;;;;;;;;;;;;;;;18.05;40.75;98373.16;4416615;32;19958;-49
2021/01/30 03:41:06;;;;;;;;;;;;;;;18.06;40.77;98369.63;4417603;32;19969;-47
2021/01/30 03:43:31;;;;;;;;;;;;;;;18.07;40.73;98361.72;4418036;32;20260;-51
2021/01/30 03:45:57;;;;;;;;;;;;;;;18.05;40.79;98366.12;4417893;32;20589;-49
2021/01/30 03:48:23;;;;;;;;;;;;;;;18.09;40.60;98364.34;4416887;32;20072;-53
2021/01/30 03:50:49;;;;;;;;;;;;;;;18.09;40.66;98364.34;4415811;32;19954;-46
2021/01/30 03:53:15;;;;;;;;;;;;;;;18.12;40.57;98364.31;4402354;32;19951;-47
2021/01/30 03:55:42;;;;;;;;;;;;;;;18.13;40.55;98355.53;4403472;32;20364;-49
2021/01/30 03:58:08;;;;;;;;;;;;;;;18.09;40.62;98359.94;4417010;32;20045;-49
2021/01/30 04:00:34;;;;;;;;;;;;;;;18.09;40.63;98353.81;4417335;32;20287;-53
2021/01/30 04:03:00;;;;;;;;;;;;;;;18.14;40.50;98354.63;4417582;32;19951;-48
2021/01/30 04:05:25;;;;;;;;;;;;;;;18.06;40.68;98354.72;4416839;32;19962;-50
2021/01/30 04:07:51;;;;;;;;;;;;;;;18.07;40.67;98351.19;4416211;32;19992;-49
2021/01/30 04:10:17;;;;;;;;;;;;;;;18.07;40.69;98350.31;4416841;32;19961;-46
2021/01/30 04:12:43;;;;;;;;;;;;;;;18.10;40.56;98345.88;4417123;32;19951;-49
2021/01/30 04:15:09;;;;;;;;;;;;;;;18.11;40.56;98342.34;4415753;32;20338;-51
2021/01/30 04:17:35;;;;;;;;;;;;;;;18.06;40.68;98345.91;4416828;32;20002;-47
2021/01/30 04:20:01;;;;;;;;;;;;;;;17.98;40.86;98341.59;4416843;32;19950;-47
2021/01/30 04:22:27;;;;;;;;;;;;;;;18.05;40.69;98338.91;4407517;32;20340;-52
2021/01/30 04:24:53;;;;;;;;;;;;;;;18.09;40.55;98338.87;4402582;32;20008;-49
2021/01/30 04:27:19;;;;;;;;;;;;;;;18.02;40.74;98341.56;4409622;32;20596;-50
2021/01/30 04:29:45;;;;;;;;;;;;;;;18.00;40.80;98332.81;4416757;32;19994;-51
2021/01/30 04:32:11;;;;;;;;;;;;;;;18.01;40.75;98339.81;4410089;32;20534;-46
2021/01/30 04:34:37;;;;;;;;;;;;;;;18.02;40.75;98344.19;4402408;32;19964;-47
2021/01/30 04:37:03;;;;;;;;;;;;;;;18.03;40.75;98340.69;4405153;32;19960;-48
2021/01/30 04:39:29;;;;;;;;;;;;;;;18.03;40.72;98330.16;4416229;32;19966;-49
2021/01/30 04:41:55;;;;;;;;;;;;;;;18.04;40.61;98324.87;4416747;32;19958;-50
2021/01/30 04:44:20;;;;;;;;;;;;;;;18.02;40.78;98325.75;4416165;32;20054;-48
2021/01/30 04:46:46;;;;;;;;;;;;;;;18.04;40.68;98324.00;4414663;32;20043;-50
2021/01/30 04:49:12;;;;;;;;;;;;;;;18.07;40.54;98319.59;4400981;32;20334;-52
2021/01/30 04:51:38;;;;;;;;;;;;;;;18.08;40.58;98323.06;4388726;32;19954;-48
2021/01/30 04:54:04;;;;;;;;;;;;;;;18.06;40.59;98328.38;4416323;32;20008;-48
2021/01/30 04:56:30;;;;;;;;;;;;;;;18.03;40.71;98324.91;4416735;32;19954;-46
2021/01/30 04:58:56;;;;;;;;;;;;;;;18.00;40.75;98317.00;4400897;32;19961;-48
2021/01/30 05:01:22;;;;;;;;;;;;;;;17.96;40.82;98313.53;4401912;32;20106;-51
2021/01/30 05:03:48;;;;;;;;;;;;;;;18.00;40.72;98322.25;4414334;32;19981;-48
2021/01/30 05:06:14;;;;;;;;;;;;;;;17.99;40.76;98324.00;4417367;32;19976;-49
2021/01/30 05:08:40;;;;;;;;;;;;;;;17.98;40.75;98320.53;4404288;32;20249;-51
2021/01/30 05:11:06;;;;;;;;;;;;;;;18.02;40.66;98321.34;4402468;32;20317;-47
2021/01/30 05:13:32;;;;;;;;;;;;;;;17.94;40.89;98313.53;4416105;32;19950;-51
2021/01/30 05:15:58;;;;;;;;;;;;;;;17.91;40.94;98316.19;4416880;32;20307;-47
2021/01/30 05:18:24;;;;;;;;;;;;;;;17.94;40.84;98310.88;4406393;32;19988;-47
2021/01/30 05:20:50;;;;;;;;;;;;;;;18.01;40.70;98310.84;4401714;32;19982;-50
2021/01/30 05:23:15;;;;;;;;;;;;;;;17.95;40.78;98304.72;4408951;32;20380;-52
2021/01/30 05:25:41;;;;;;;;;;;;;;;17.94;40.85;98302.13;4416818;32;19998;-49
2021/01/30 05:28:07;;;;;;;;;;;;;;;18.03;40.66;98295.91;4409410;32;19997;-50
2021/01/30 05:30:33;;;;;;;;;;;;;;;17.95;40.79;98298.59;4414080;32;20022;-54
2021/01/30 05:32:59;;;;;;;;;;;;;;;18.02;40.61;98294.16;4415459;32;20002;-53
2021/01/30 05:35:25;;;;;;;;;;;;;;;18.02;40.59;98299.41;4404676;32;20025;-54
2021/01/30 05:37:51;;;;;;;;;;;;;;;18.01;40.68;98305.56;4408215;32;20006;-54
2021/01/30 05:40:16;;;;;;;;;;;;;;;17.96;40.75;98309.13;4418088;32;19974;-56
2021/01/30 05:42:42;;;;;;;;;;;;;;;17.95;40.76;98302.09;4411564;32;20045;-56
2021/01/30 05:45:08;;;;;;;;;;;;;;;18.01;40.64;98308.22;4411409;32;19998;-55
2021/01/30 05:47:34;;;;;;;;;;;;;;;18.01;40.70;98302.94;4411611;32;20598;-55
2021/01/30 05:50:00;;;;;;;;;;;;;;;17.96;40.79;98306.50;4411572;32;20065;-51
2021/01/30 05:52:26;;;;;;;;;;;;;;;17.87;40.97;98305.72;4412276;32;19969;-57
2021/01/30 05:54:52;;;;;;;;;;;;;;;17.77;41.23;98305.78;4411276;32;20030;-57
2021/01/30 05:57:18;;;;;;;;;;;;;;;17.69;41.35;98308.50;4412202;32;20361;-55
2021/01/30 05:59:43;;;;;;;;;;;;;;;17.68;41.43;98301.50;4410934;32;19977;-56
2021/01/30 06:02:10;;;;;;;;;;;;;;;17.73;41.40;98301.44;4411458;32;19972;-55
2021/01/30 06:04:36;;;;;;;;;;;;;;;17.65;41.55;98304.16;4411980;32;19981;-56
2021/01/30 06:07:02;;;;;;;;;;;;;;;17.57;41.84;98298.09;4414502;32;19962;-57
2021/01/30 06:09:28;;;;;;;;;;;;;;;17.51;41.91;98308.69;4411786;32;20359;-56
2021/01/30 06:11:54;;;;;;;;;;;;;;;17.61;41.72;98299.81;4412142;32;19934;-54
2021/01/30 06:14:20;;;;;;;;;;;;;;;17.65;41.49;98295.38;4411191;32;20330;-55
2021/01/30 06:16:45;;;;;;;;;;;;;;;17.69;41.50;98303.25;4414998;32;19950;-52
2021/01/30 06:19:11;;;;;;;;;;;;;;;17.72;41.39;98298.81;4410720;32;19957;-53
2021/01/30 06:21:37;;;;;;;;;;;;;;;17.70;41.53;98298.84;4411824;32;19954;-55
2021/01/30 06:24:03;;;;;;;;;;;;;;;17.76;41.41;98298.78;4409763;32;20331;-54
2021/01/30 06:26:29;;;;;;;;;;;;;;;17.64;41.67;98291.88;4412086;32;19983;-56
2021/01/30 06:28:55;;;;;;;;;;;;;;;17.57;41.95;98298.09;4410372;32;19958;-55
2021/01/30 06:31:21;;;;;;;;;;;;;;;17.54;42.01;98287.59;4412612;32;20052;-53
2021/01/30 06:33:47;;;;;;;;;;;;;;;17.53;42.01;98292.00;4411011;32;19946;-55
2021/01/30 06:36:13;;;;;;;;;;;;;;;17.49;42.06;98284.16;4412657;32;19990;-55
2021/01/30 06:38:39;;;;;;;;;;;;;;;17.65;41.73;98288.38;4409964;32;19974;-56
2021/01/30 06:41:05;;;;;;;;;;;;;;;17.52;42.09;98289.38;4412182;32;19942;-53
2021/01/30 06:43:31;;;;;;;;;;;;;;;17.40;42.35;98280.69;4409872;32;19995;-54
2021/01/30 06:45:57;;;;;;;;;;;;;;;17.41;42.25;98279.81;4412877;32;19965;-55
2021/01/30 06:48:23;;;;;;;;;;;;;;;17.42;42.27;98291.22;4409899;32;20054;-50
2021/01/30 06:50:49;;;;;;;;;;;;;;;17.53;42.05;98285.84;4411646;32;20309;-55
2021/01/30 06:53:15;;;;;;;;;;;;;;;17.52;42.02;98287.59;4411086;32;19972;-56
2021/01/30 06:55:41;;;;;;;;;;;;;;;17.54;41.97;98283.22;4411257;32;19950;-54
2021/01/30 06:58:06;;;;;;;;;;;;;;;17.58;41.83;98289.31;4412086;32;19998;-54
2021/01/30 07:00:32;;;;;;;;;;;;;;;17.63;41.62;98292.78;4411465;32;19966;-56
2021/01/30 07:02:58;;;;;;;;;;;;;;;17.66;41.63;98287.47;4411898;32;20327;-56
2021/01/30 07:05:24;;;;;;;;;;;;;;;17.66;41.68;98289.25;4412621;32;19970;-55
2021/01/30 07:07:50;;;;;;;;;;;;;;;17.68;41.57;98293.59;4418990;32;19972;-57
2021/01/30 07:10:16;;;;;;;;;;;;;;;17.67;41.62;98294.50;4408909;32;19997;-56
2021/01/30 07:12:42;;;;;;;;;;;;;;;17.74;41.45;98286.53;4404178;32;19977;-56
2021/01/30 07:15:08;;;;;;;;;;;;;;;17.68;41.60;98288.34;4410810;32;19949;-53
2021/01/30 07:17:33;;;;;;;;;;;;;;;17.76;41.39;98287.41;4412145;32;19974;-54
2021/01/30 07:19:59;;;;;;;;;;;;;;;17.66;41.70;98290.12;4410760;32;19966;-56
2021/01/30 07:22:25;;;;;;;;;;;;;;;17.66;41.58;98287.47;4410101;32;20377;-56
2021/01/30 07:24:51;;;;;;;;;;;;;;;17.70;41.63;98283.06;4411320;32;20011;-53
2021/01/30 07:27:17;;;;;;;;;;;;;;;17.69;41.60;98291.84;4411041;32;19958;-54
2021/01/30 07:29:43;;;;;;;;;;;;;;;17.76;41.38;98295.28;4411185;32;20354;-56
2021/01/30 07:32:09;;;;;;;;;;;;;;;17.73;41.50;98297.97;4410994;32;19973;-54
2021/01/30 07:34:35;;;;;;;;;;;;;;;17.76;41.43;98292.66;4412101;32;20357;-56
2021/01/30 07:37:00;;;;;;;;;;;;;;;17.73;41.56;98293.56;4410460;32;19950;-55
2021/01/30 07:39:26;;;;;;;;;;;;;;;17.61;41.93;98288.41;4409954;32;20658;-56
2021/01/30 07:41:52;;;;;;;;;;;;;;;17.59;42.00;98287.56;4407458;32;19989;-56
2021/01/30 07:44:18;;;;;;;;;;;;;;;17.61;41.90;98291.94;4410366;32;19942;-54
2021/01/30 07:46:44;;;;;;;;;;;;;;;17.57;42.04;98287.56;4413249;32;20327;-54
2021/01/30 07:49:10;;;;;;;;;;;;;;;17.43;42.32;98282.44;4416893;32;19954;-55
2021/01/30 07:51:36;;;;;;;;;;;;;;;17.41;42.34;98277.19;4418719;32;19977;-54
2021/01/30 07:54:02;;;;;;;;;;;;;;;17.41;42.40;98284.22;4418157;32;20122;-56
2021/01/30 07:56:28;;;;;;;;;;;;;;;17.41;42.32;98285.06;4405817;32;20020;-51
2021/01/30 07:58:53;;;;;;;;;;;;;;;17.59;41.91;98285.78;4402931;32;19988;-56
2021/01/30 08:01:19;;;;;;;;;;;;;;;17.46;42.29;98273.63;4411278;32;20292;-50
2021/01/30 08:03:45;;;;;;;;;;;;;;;17.46;42.17;98274.50;4409829;32;19947;-53
2021/01/30 08:06:11;;;;;;;;;;;;;;;17.17;42.68;98272.13;4412292;32;19954;-50
2021/01/30 08:08:37;;;;;;;;;;;;;;;17.37;42.26;98274.59;4415038;32;20103;-50
2021/01/30 08:11:03;;;;;;;;;;;;;;;17.48;41.71;98272.72;4408823;32;19946;-53
2021/01/30 08:13:29;;;;;;;;;;;;;;;17.56;41.58;98275.28;4399884;32;20366;-52
2021/01/30 08:15:55;;;;;;;;;;;;;;;17.61;41.55;98272.63;4408847;32;19964;-54
2021/01/30 08:18:21;;;;;;;;;;;;;;;17.66;41.46;98274.31;4416755;32;19950;-50
2021/01/30 08:20:47;;;;;;;;;;;;;;;17.74;41.24;98276.00;4417645;32;19954;-49
2021/01/30 08:23:13;;;;;;;;;;;;;;;17.77;41.12;98274.19;4416536;32;20041;-52
2021/01/30 08:25:39;;;;;;;;;;;;;;;17.74;41.27;98270.75;4414178;32;19954;-51
2021/01/30 08:28:04;;;;;;;;;;;;;;;17.72;41.29;98276.03;4399651;32;19961;-50
2021/01/30 08:30:30;;;;;;;;;;;;;;;17.69;41.39;98269.00;4403075;32;20359;-50
2021/01/30 08:32:56;;;;;;;;;;;;;;;17.73;41.28;98276.91;4417490;32;19965;-54
2021/01/30 08:35:22;;;;;;;;;;;;;;;17.75;41.22;98275.12;4417806;32;20033;-52
2021/01/30 08:37:48;;;;;;;;;;;;;;;17.73;41.25;98271.63;4418053;32;19987;-55
2021/01/30 08:40:14;;;;;;;;;;;;;;;17.65;41.56;98279.59;4416231;32;19953;-49
2021/01/30 08:42:40;;;;;;;;;;;;;;;17.65;41.43;98272.56;4402431;32;19959;-52
2021/01/30 08:45:06;;;;;;;;;;;;;;;17.73;41.32;98271.63;4401853;32;20044;-54
2021/01/30 08:47:32;;;;;;;;;;;;;;;17.70;41.36;98273.38;4414697;32;20334;-55
2021/01/30 08:49:57;;;;;;;;;;;;;;;17.64;41.46;98277.84;4416711;32;19977;-52
2021/01/30 08:52:23;;;;;;;;;;;;;;;17.69;41.31;98276.91;4417257;32;20262;-52
2021/01/30 08:54:49;;;;;;;;;;;;;;;17.68;41.37;98283.06;4416522;32;19946;-51
2021/01/30 08:57:15;;;;;;;;;;;;;;;17.73;41.18;98283.03;4405610;32;19954;-51
2021/01/30 08:59:41;;;;;;;;;;;;;;;17.67;41.39;98283.97;4398864;32;19986;-51
2021/01/30 09:02:07;;;;;;;;;;;;;;;17.77;41.17;98289.13;4409474;32;19954;-51
2021/01/30 09:04:33;;;;;;;;;;;;;;;17.76;41.25;98293.50;4416798;32;20331;-52
2021/01/30 09:06:58;;;;;;;;;;;;;;;17.54;41.88;98284.97;4411291;32;19955;-52
2021/01/30 09:09:24;;;;;;;;;;;;;;;17.53;41.99;98299.00;4399300;32;19954;-52
2021/01/30 09:11:50;;;;;;;;;;;;;;;17.64;41.76;98293.63;4409309;32;20306;-52
2021/01/30 09:14:16;;;;;;;;;;;;;;;17.60;41.81;98302.47;4405209;32;19969;-51
2021/01/30 09:16:42;;;;;;;;;;;;;;;17.55;41.95;98295.50;4405351;32;20054;-53
2021/01/30 09:19:08;;;;;;;;;;;;;;;17.48;42.13;98293.78;4403145;32;19968;-54
2021/01/30 09:21:34;;;;;;;;;;;;;;;17.42;42.22;98299.97;4413053;32;20521;-53
2021/01/30 09:24:00;;;;;;;;;;;;;;;17.61;41.83;98301.56;4415486;32;19957;-52
2021/01/30 09:26:25;;;;;;;;;;;;;;;17.40;42.24;98306.12;4401585;32;20055;-52
2021/01/30 09:28:51;;;;;;;;;;;;;;;17.46;42.22;98310.47;4409547;32;20018;-50
2021/01/30 09:31:17;;;;;;;;;;;;;;;17.49;42.11;98310.47;4415966;32;20385;-53
2021/01/30 09:33:43;;;;;;;;;;;;;;;17.48;42.25;98319.25;4403577;32;19977;-49
2021/01/30 09:36:09;;;;;;;;;;;;;;;17.51;42.12;98330.59;4405040;32;19958;-50
2021/01/30 09:38:35;;;;;;;;;;;;;;;17.49;42.15;98326.25;4419219;32;20570;-54
2021/01/30 09:41:01;;;;;;;;;;;;;;;17.55;42.00;98329.69;4412904;32;19969;-49
2021/01/30 09:43:27;;;;;;;;;;;;;;;17.54;42.07;98325.31;4417911;32;19972;-51
2021/01/30 09:45:52;;;;;;;;;;;;;;;17.60;41.82;98334.03;4421396;32;20356;-49
2021/01/30 09:48:18;;;;;;;;;;;;;;;17.61;41.66;98330.53;4407898;32;19934;-53
2021/01/30 09:50:44;;;;;;;;;;;;;;;17.65;41.58;98338.38;4416026;32;19954;-51
2021/01/30 09:53:12;;;;;;;;;;;;;;;17.67;41.59;98348.91;4419704;32;19953;-50
2021/01/30 09:55:38;;;;;;;;;;;;;;;17.66;41.60;98350.66;4421205;32;19987;-54
2021/01/30 09:58:03;;;;;;;;;;;;;;;17.69;41.54;98350.62;4410055;32;19942;-51
2021/01/30 10:00:29;;;;;;;;;;;;;;;17.74;41.40;98355.84;4405296;32;20018;-49
2021/01/30 10:02:55;;;;;;;;;;;;;;;17.77;41.36;98354.97;4413065;32;20009;-53
2021/01/30 10:05:21;;;;;;;;;;;;;;;17.84;41.13;98351.38;4420557;32;19952;-52
2021/01/30 10:07:47;;;;;;;;;;;;;;;17.65;41.60;98348.91;4413963;32;19961;-50
2021/01/30 10:10:13;;;;;;;;;;;;;;;17.65;41.60;98343.66;4404191;32;19988;-50
2021/01/30 10:12:39;;;;;;;;;;;;;;;17.59;41.70;98348.94;4410779;32;19949;-54
2021/01/30 10:15:05;;;;;;;;;;;;;;;17.60;41.71;98350.72;4420313;32;20307;-52
2021/01/30 10:17:30;;;;;;;;;;;;;;;17.64;41.64;98356.81;4415747;32;19978;-49
2021/01/30 10:19:56;;;;;;;;;;;;;;;17.58;41.73;98346.34;4410784;32;19958;-55
2021/01/30 10:22:22;;;;;;;;;;;;;;;17.56;41.75;98348.97;4417071;32;20034;-49
2021/01/30 10:24:48;;;;;;;;;;;;;;;17.61;41.64;98352.47;4404149;32;20112;-55
2021/01/30 10:27:14;;;;;;;;;;;;;;;17.62;41.57;98354.22;4405900;32;19961;-53
2021/01/30 10:29:40;;;;;;;;;;;;;;;17.63;41.53;98355.06;4419702;32;20271;-50
2021/01/30 10:32:06;;;;;;;;;;;;;;;17.65;41.49;98350.66;4412795;32;20655;-54
2021/01/30 10:34:32;;;;;;;;;;;;;;;17.65;41.44;98351.53;4412170;32;20006;-49
2021/01/30 10:36:57;;;;;;;;;;;;;;;17.68;41.38;98359.41;4411672;32;20014;-53
2021/01/30 10:39:24;;;;;;;;;;;;;;;17.66;41.33;98352.44;4410868;32;20009;-53
2021/01/30 10:41:50;;;;;;;;;;;;;;;17.61;41.41;98352.47;4416771;32;20034;-51
2021/01/30 10:44:16;;;;;;;;;;;;;;;17.59;41.45;98356.84;4405130;32;19950;-52
2021/01/30 10:46:41;;;;;;;;;;;;;;;17.60;41.41;98352.47;4404498;32;20321;-50
2021/01/30 10:49:07;;;;;;;;;;;;;;;17.65;41.28;98354.19;4407215;32;19968;-49
2021/01/30 10:51:36;;;;;;;;;;;;;;;17.69;41.14;98352.41;4412096;32;19958;-53
2021/01/30 10:54:02;;;;;;;;;;;;;;;17.75;41.05;98354.09;4419981;32;19953;-51
2021/01/30 10:56:28;;;;;;;;;;;;;;;17.79;40.96;98361.06;4419969;32;20001;-50
2021/01/30 10:58:54;;;;;;;;;;;;;;;17.85;40.84;98358.41;4416548;32;19938;-52
2021/01/30 11:01:20;;;;;;;;;;;;;;;17.92;40.60;98356.59;4413006;32;20024;-51
2021/01/30 11:03:46;;;;;;;;;;;;;;;17.92;40.56;98356.59;4411985;32;20042;-50
2021/01/30 11:06:12;;;;;;;;;;;;;;;17.83;40.72;98357.53;4411301;32;20337;-52
2021/01/30 11:08:37;;;;;;;;;;;;;;;17.86;40.66;98360.16;4410095;32;19954;-50
2021/01/30 11:11:03;;;;;;;;;;;;;;;17.75;40.83;98351.47;4412591;32;19938;-50
2021/01/30 11:13:29;;;;;;;;;;;;;;;17.78;40.76;98354.06;4409818;32;20302;-52
2021/01/30 11:15:55;;;;;;;;;;;;;;;17.84;40.63;98352.25;4414591;32;19946;-52
2021/01/30 11:18:21;;;;;;;;;;;;;;;17.75;40.82;98354.09;4412090;32;19973;-50
2021/01/30 11:20:47;;;;;;;;;;;;;;;17.70;40.77;98352.38;4412747;32;20007;-49
2021/01/30 11:23:13;;;;;;;;;;;;;;;17.73;40.79;98334.81;4410041;32;19973;-52
2021/01/30 11:25:39;;;;;;;;;;;;;;;17.86;40.62;98344.34;4412734;32;19950;-54
2021/01/30 11:28:04;;;;;;;;;;;;;;;17.91;40.49;98337.25;4410636;32;20327;-51
2021/01/30 11:30:30;;;;;;;;;;;;;;;17.91;40.42;98339.03;4403916;32;19977;-53
2021/01/30 11:32:57;;;;;;;;;;;;;;;17.92;40.31;98338.16;4404005;32;19949;-52
2021/01/30 11:35:22;;;;;;;;;;;;;;;17.93;40.38;98332.00;4417977;32;20370;-53
2021/01/30 11:37:49;;;;;;;;;;;;;;;17.90;40.32;98322.34;4419104;32;20167;-53
2021/01/30 11:40:14;;;;;;;;;;;;;;;17.91;40.40;98328.50;4411101;32;19962;-50
2021/01/30 11:42:40;;;;;;;;;;;;;;;17.91;40.38;98316.19;4412116;32;20287;-51
2021/01/30 11:45:06;;;;;;;;;;;;;;;17.86;40.55;98320.66;4410699;32;19942;-51
2021/01/30 11:47:32;;;;;;;;;;;;;;;17.84;40.49;98317.13;4417537;32;19990;-53
2021/01/30 11:49:58;;;;;;;;;;;;;;;17.88;40.44;98324.13;4414414;32;19958;-52
2021/01/30 11:52:24;;;;;;;;;;;;;;;17.92;40.33;98320.56;4418937;32;19958;-52
2021/01/30 11:54:50;;;;;;;;;;;;;;;17.89;40.27;98311.81;4418620;32;19945;-51
2021/01/30 11:57:16;;;;;;;;;;;;;;;17.79;40.51;98305.78;4418407;32;20314;-50
2021/01/30 11:59:41;;;;;;;;;;;;;;;17.82;40.37;98308.37;4418478;32;19951;-50
2021/01/30 12:02:07;;;;;;;;;;;;;;;17.86;40.18;98309.22;4418376;32;19965;-52
2021/01/30 12:04:33;;;;;;;;;;;;;;;17.84;40.28;98311.88;4418943;32;20282;-51
2021/01/30 12:06:59;;;;;;;;;;;;;;;17.84;40.13;98301.34;4419252;32;19934;-51
2021/01/30 12:09:25;;;;;;;;;;;;;;;17.88;40.14;98305.69;4413351;32;19954;-50
2021/01/30 12:11:51;;;;;;;;;;;;;;;17.83;40.12;98299.59;4403812;32;19953;-48
2021/01/30 12:14:17;;;;;;;;;;;;;;;17.90;40.21;98293.37;4405547;32;19942;-48
2021/01/30 12:16:43;;;;;;;;;;;;;;;17.74;40.37;98294.44;4418921;32;19934;-48
2021/01/30 12:19:08;;;;;;;;;;;;;;;17.77;40.30;98289.13;4415830;32;19983;-53
2021/01/30 12:21:34;;;;;;;;;;;;;;;17.77;40.36;98284.72;4419032;32;19972;-52
2021/01/30 12:24:00;;;;;;;;;;;;;;;17.67;40.64;98283.97;4418323;32;19946;-51
2021/01/30 12:26:28;;;;;;;;;;;;;;;17.62;40.90;98279.63;4418090;32;20264;-50
2021/01/30 12:28:53;;;;;;;;;;;;;;;17.75;40.68;98277.75;4417918;32;19958;-49
2021/01/30 12:31:19;;;;;;;;;;;;;;;17.75;40.55;98268.09;4418336;32;19961;-53
2021/01/30 12:33:45;;;;;;;;;;;;;;;17.69;40.68;98271.66;4418249;32;19965;-50
2021/01/30 12:36:11;;;;;;;;;;;;;;;17.71;40.62;98271.66;4405339;32;20248;-51
2021/01/30 12:38:37;;;;;;;;;;;;;;;17.62;40.73;98269.97;4402720;32;19942;-49
2021/01/30 12:41:05;;;;;;;;;;;;;;;17.54;40.94;98271.81;4414429;32;19985;-51